createdAt,value
2023-01-04T00:00:24.834Z,22.1
2023-01-04T00:01:27.233Z,22.1
2023-01-04T00:02:29.593Z,22.1
2023-01-04T00:03:32.841Z,22.1
2023-01-04T00:04:36.121Z,22.1
2023-01-04T00:05:38.636Z,22.1
2023-01-04T00:06:41.254Z,22.1
2023-01-04T00:07:43.781Z,22.1
2023-01-04T00:08:46.046Z,22.1
2023-01-04T00:09:48.003Z,22.1
2023-01-04T00:10:50.278Z,22.1
2023-01-04T00:11:52.818Z,22.1
2023-01-04T00:12:55.374Z,22.1
2023-01-04T00:13:57.925Z,22.1
2023-01-04T00:15:00.514Z,22.2
2023-01-04T00:17:08.033Z,22.2
2023-01-04T00:18:10.574Z,22.2
2023-01-04T00:19:12.554Z,22.2
2023-01-04T00:20:15.117Z,22.2
2023-01-04T00:21:17.689Z,22.2
2023-01-04T00:22:20.310Z,22.2
2023-01-04T00:23:22.876Z,22.2
2023-01-04T00:24:25.372Z,22.2
2023-01-04T00:25:27.636Z,22.2
2023-01-04T00:26:29.916Z,22.2
2023-01-04T00:27:32.166Z,22.2
2023-01-04T00:28:34.421Z,22.2
2023-01-04T00:29:36.662Z,22.2
2023-01-04T00:30:39.161Z,22.2
2023-01-04T00:31:41.854Z,22.2
2023-01-04T00:32:44.318Z,22.2
2023-01-04T00:33:46.834Z,22.2
2023-01-04T00:34:49.354Z,22.2
2023-01-04T00:35:51.872Z,22.2
2023-01-04T00:36:54.404Z,22.2
2023-01-04T00:37:56.964Z,22.3
2023-01-04T00:38:59.503Z,22.3
2023-01-04T00:40:02.062Z,22.3
2023-01-04T00:41:04.331Z,22.3
2023-01-04T00:42:06.847Z,22.3
2023-01-04T00:43:09.131Z,22.3
2023-01-04T00:44:11.452Z,22.3
2023-01-04T00:45:13.411Z,22.3
2023-01-04T00:46:16.128Z,22.3
2023-01-04T00:47:18.518Z,22.3
2023-01-04T00:48:20.459Z,22.3
2023-01-04T00:49:22.999Z,22.3
2023-01-04T00:50:25.289Z,22.3
2023-01-04T00:51:27.913Z,22.3
2023-01-04T00:52:30.528Z,22.3
2023-01-04T00:53:33.074Z,22.3
2023-01-04T00:54:35.738Z,22.3
2023-01-04T00:55:38.236Z,22.3
2023-01-04T00:56:40.750Z,22.3
2023-01-04T00:57:43.256Z,22.3
2023-01-04T00:58:45.505Z,22.3
2023-01-04T00:59:48.037Z,22.3
2023-01-04T01:00:50.585Z,22.3
2023-01-04T01:01:53.804Z,22.3
2023-01-04T01:02:57.799Z,22.4
2023-01-04T01:04:01.247Z,22.4
2023-01-04T01:05:03.822Z,22.4
2023-01-04T01:06:06.064Z,22.4
2023-01-04T01:07:08.312Z,22.4
2023-01-04T01:08:10.534Z,22.4
2023-01-04T01:09:13.108Z,22.4
2023-01-04T01:10:15.695Z,22.4
2023-01-04T01:11:17.932Z,22.4
2023-01-04T01:12:19.904Z,22.4
2023-01-04T01:13:22.426Z,22.4
2023-01-04T01:14:25.036Z,22.4
2023-01-04T01:15:27.749Z,22.4
2023-01-04T01:17:35.462Z,22.4
2023-01-04T01:18:37.696Z,22.4
2023-01-04T01:19:40.225Z,22.4
2023-01-04T01:20:42.481Z,22.4
2023-01-04T01:21:44.731Z,22.4
2023-01-04T01:22:47.281Z,22.4
2023-01-04T01:23:49.806Z,22.4
2023-01-04T01:24:52.395Z,22.4
2023-01-04T01:25:54.970Z,22.4
2023-01-04T01:26:57.534Z,22.4
2023-01-04T01:28:00.088Z,22.4
2023-01-04T01:29:02.379Z,22.4
2023-01-04T01:30:04.698Z,22.4
2023-01-04T01:32:12.047Z,22.5
2023-01-04T01:33:14.276Z,22.5
2023-01-04T01:34:16.780Z,22.5
2023-01-04T01:35:19.327Z,22.5
2023-01-04T01:36:21.860Z,22.5
2023-01-04T01:37:24.381Z,22.5
2023-01-04T01:38:26.608Z,22.5
2023-01-04T01:39:29.124Z,22.4
2023-01-04T01:40:31.737Z,22.4
2023-01-04T01:41:34.007Z,22.4
2023-01-04T01:42:36.328Z,22.4
2023-01-04T01:43:38.856Z,22.4
2023-01-04T01:44:40.783Z,22.4
2023-01-04T01:45:43.039Z,22.4
2023-01-04T01:46:45.510Z,22.4
2023-01-04T01:47:47.948Z,22.4
2023-01-04T01:48:50.447Z,22.5
2023-01-04T01:49:52.956Z,22.5
2023-01-04T01:50:55.171Z,22.5
2023-01-04T01:51:57.694Z,22.5
2023-01-04T01:52:59.915Z,22.5
2023-01-04T01:54:02.439Z,22.5
2023-01-04T01:55:05.039Z,22.5
2023-01-04T01:56:07.432Z,22.5
2023-01-04T01:57:10.003Z,22.5
2023-01-04T01:58:12.527Z,22.5
2023-01-04T01:59:14.752Z,22.5
2023-01-04T02:00:17.311Z,22.5
2023-01-04T02:01:20.136Z,22.5
2023-01-04T02:02:23.851Z,22.5
2023-01-04T02:03:27.340Z,22.5
2023-01-04T02:04:30.449Z,22.5
2023-01-04T02:05:32.973Z,22.5
2023-01-04T02:06:35.191Z,22.5
2023-01-04T02:07:37.410Z,22.5
2023-01-04T02:08:39.911Z,22.5
2023-01-04T02:09:42.458Z,22.5
2023-01-04T02:10:44.687Z,22.5
2023-01-04T02:11:46.968Z,22.5
2023-01-04T02:12:49.532Z,22.5
2023-01-04T02:13:51.755Z,22.5
2023-01-04T02:14:54.003Z,22.5
2023-01-04T02:15:56.389Z,22.5
2023-01-04T02:16:58.579Z,22.5
2023-01-04T02:18:00.867Z,22.5
2023-01-04T02:19:02.861Z,22.5
2023-01-04T02:20:05.571Z,22.5
2023-01-04T02:21:08.097Z,22.6
2023-01-04T02:22:10.036Z,22.6
2023-01-04T02:23:12.572Z,22.6
2023-01-04T02:24:15.079Z,22.6
2023-01-04T02:25:17.566Z,22.6
2023-01-04T02:26:19.861Z,22.6
2023-01-04T02:27:22.470Z,22.6
2023-01-04T02:28:25.186Z,22.6
2023-01-04T02:29:27.401Z,22.5
2023-01-04T02:30:29.655Z,22.5
2023-01-04T02:31:32.324Z,22.5
2023-01-04T02:32:35.112Z,22.5
2023-01-04T02:33:37.635Z,22.5
2023-01-04T02:34:39.857Z,22.5
2023-01-04T02:35:42.086Z,22.5
2023-01-04T02:36:44.011Z,22.5
2023-01-04T02:37:46.029Z,22.5
2023-01-04T02:38:48.544Z,22.5
2023-01-04T02:39:51.051Z,22.6
2023-01-04T02:40:53.569Z,22.6
2023-01-04T02:41:55.817Z,22.6
2023-01-04T02:42:58.129Z,22.6
2023-01-04T02:44:00.699Z,22.6
2023-01-04T02:45:03.267Z,22.6
2023-01-04T02:46:05.777Z,22.6
2023-01-04T02:47:08.947Z,22.6
2023-01-04T02:48:11.764Z,22.6
2023-01-04T02:49:14.395Z,22.6
2023-01-04T02:50:16.902Z,22.6
2023-01-04T02:51:19.433Z,22.6
2023-01-04T02:52:21.981Z,22.6
2023-01-04T02:53:24.230Z,22.6
2023-01-04T02:54:26.203Z,22.6
2023-01-04T02:55:28.772Z,22.6
2023-01-04T02:56:31.320Z,22.6
2023-01-04T02:57:33.827Z,22.6
2023-01-04T02:58:36.441Z,22.6
2023-01-04T02:59:39.015Z,22.6
2023-01-04T03:00:41.544Z,22.6
2023-01-04T03:01:43.921Z,22.6
2023-01-04T03:02:47.469Z,22.6
2023-01-04T03:03:50.708Z,22.6
2023-01-04T03:04:53.498Z,22.6
2023-01-04T03:05:56.053Z,22.6
2023-01-04T03:06:58.614Z,22.6
2023-01-04T03:08:00.860Z,22.6
2023-01-04T03:09:03.372Z,22.6
2023-01-04T03:10:05.719Z,22.6
2023-01-04T03:11:08.234Z,22.6
2023-01-04T03:12:10.764Z,22.6
2023-01-04T03:13:12.681Z,22.7
2023-01-04T03:15:20.377Z,22.6
2023-01-04T03:16:23.276Z,22.6
2023-01-04T03:17:26.034Z,22.6
2023-01-04T03:18:28.580Z,22.6
2023-01-04T03:19:30.807Z,22.6
2023-01-04T03:20:33.336Z,22.6
2023-01-04T03:21:35.601Z,22.6
2023-01-04T03:22:37.551Z,22.6
2023-01-04T03:23:39.779Z,22.6
2023-01-04T03:24:42.033Z,22.6
2023-01-04T03:25:44.549Z,22.6
2023-01-04T03:26:47.094Z,22.6
2023-01-04T03:27:49.604Z,22.6
2023-01-04T03:28:51.824Z,22.6
2023-01-04T03:29:54.044Z,22.6
2023-01-04T03:30:56.728Z,22.6
2023-01-04T03:31:59.729Z,22.6
2023-01-04T03:33:02.222Z,22.6
2023-01-04T03:34:04.734Z,22.6
2023-01-04T03:35:07.245Z,22.6
2023-01-04T03:36:09.237Z,22.6
2023-01-04T03:37:11.734Z,22.6
2023-01-04T03:38:13.980Z,22.6
2023-01-04T03:39:16.504Z,22.7
2023-01-04T03:40:18.783Z,22.6
2023-01-04T03:41:21.010Z,22.6
2023-01-04T03:42:23.549Z,22.6
2023-01-04T03:43:26.064Z,22.6
2023-01-04T03:44:28.583Z,22.6
2023-01-04T03:45:31.103Z,22.6
2023-01-04T03:46:33.345Z,22.6
2023-01-04T03:47:35.886Z,22.6
2023-01-04T03:48:38.481Z,22.6
2023-01-04T03:49:40.850Z,22.6
2023-01-04T03:50:42.825Z,22.6
2023-01-04T03:51:45.381Z,22.6
2023-01-04T03:52:47.623Z,22.6
2023-01-04T03:53:50.131Z,22.6
2023-01-04T03:54:52.326Z,22.6
2023-01-04T03:55:54.576Z,22.6
2023-01-04T03:56:56.805Z,22.6
2023-01-04T03:57:59.399Z,22.6
2023-01-04T03:59:01.930Z,22.6
2023-01-04T04:00:04.200Z,22.6
2023-01-04T04:01:07.123Z,22.7
2023-01-04T04:02:10.317Z,22.7
2023-01-04T04:03:13.015Z,22.7
2023-01-04T04:04:15.374Z,22.7
2023-01-04T04:05:18.235Z,22.7
2023-01-04T04:06:20.746Z,22.6
2023-01-04T04:07:23.351Z,22.6
2023-01-04T04:08:25.456Z,22.6
2023-01-04T04:09:27.992Z,22.6
2023-01-04T04:10:30.525Z,22.6
2023-01-04T04:11:32.771Z,22.6
2023-01-04T04:12:35.266Z,22.6
2023-01-04T04:13:37.783Z,22.6
2023-01-04T04:14:40.307Z,22.6
2023-01-04T04:15:42.840Z,22.6
2023-01-04T04:16:44.979Z,22.6
2023-01-04T04:17:47.769Z,22.6
2023-01-04T04:18:50.357Z,22.6
2023-01-04T04:19:52.642Z,22.5
2023-01-04T04:20:55.143Z,22.5
2023-01-04T04:21:57.659Z,22.5
2023-01-04T04:23:00.179Z,22.5
2023-01-04T04:24:02.143Z,22.5
2023-01-04T04:25:04.253Z,22.5
2023-01-04T04:26:06.754Z,22.5
2023-01-04T04:27:09.421Z,22.5
2023-01-04T04:28:11.943Z,22.5
2023-01-04T04:29:14.465Z,22.5
2023-01-04T04:30:17.082Z,22.5
2023-01-04T04:31:19.450Z,22.5
2023-01-04T04:32:21.937Z,22.5
2023-01-04T04:33:24.487Z,22.5
2023-01-04T04:34:27.134Z,22.5
2023-01-04T04:35:29.375Z,22.5
2023-01-04T04:36:31.892Z,22.5
2023-01-04T04:37:34.413Z,22.5
2023-01-04T04:38:36.960Z,22.5
2023-01-04T04:39:39.472Z,22.5
2023-01-04T04:40:42.011Z,22.5
2023-01-04T04:41:44.688Z,22.4
2023-01-04T04:42:47.027Z,22.4
2023-01-04T04:43:49.552Z,22.4
2023-01-04T04:44:51.823Z,22.4
2023-01-04T04:45:54.297Z,22.4
2023-01-04T04:46:57.059Z,22.4
2023-01-04T04:47:59.585Z,22.4
2023-01-04T04:49:01.650Z,22.4
2023-01-04T04:50:03.954Z,22.4
2023-01-04T04:51:06.503Z,22.4
2023-01-04T04:52:09.014Z,22.4
2023-01-04T04:53:11.258Z,22.4
2023-01-04T04:54:13.895Z,22.4
2023-01-04T04:55:16.480Z,22.4
2023-01-04T04:56:18.737Z,22.4
2023-01-04T04:57:21.035Z,22.4
2023-01-04T04:58:23.642Z,22.4
2023-01-04T04:59:26.146Z,22.4
2023-01-04T05:00:28.124Z,22.4
2023-01-04T05:01:31.378Z,22.4
2023-01-04T05:02:34.734Z,22.4
2023-01-04T05:03:37.696Z,22.4
2023-01-04T05:04:40.557Z,22.4
2023-01-04T05:05:43.202Z,22.4
2023-01-04T05:06:45.754Z,22.4
2023-01-04T05:07:48.288Z,22.4
2023-01-04T05:08:50.820Z,22.4
2023-01-04T05:09:53.138Z,22.4
2023-01-04T05:10:55.374Z,22.4
2023-01-04T05:11:57.643Z,22.4
2023-01-04T05:13:00.186Z,22.4
2023-01-04T05:14:02.416Z,22.3
2023-01-04T05:15:04.648Z,22.4
2023-01-04T05:16:07.177Z,22.3
2023-01-04T05:17:10.011Z,22.3
2023-01-04T05:18:12.520Z,22.3
2023-01-04T05:19:15.054Z,22.3
2023-01-04T05:20:17.364Z,22.3
2023-01-04T05:21:21.531Z,22.3
2023-01-04T05:22:23.760Z,22.3
2023-01-04T05:23:26.023Z,22.3
2023-01-04T05:24:28.523Z,22.3
2023-01-04T05:25:31.061Z,22.3
2023-01-04T05:26:33.578Z,22.3
2023-01-04T05:27:36.092Z,22.3
2023-01-04T05:28:38.344Z,22.3
2023-01-04T05:29:40.593Z,22.3
2023-01-04T05:30:43.117Z,22.3
2023-01-04T05:31:45.787Z,22.3
2023-01-04T05:32:47.874Z,22.3
2023-01-04T05:33:50.462Z,22.3
2023-01-04T05:34:53.151Z,22.3
2023-01-04T05:35:55.435Z,22.3
2023-01-04T05:36:57.791Z,22.3
2023-01-04T05:38:00.310Z,22.3
2023-01-04T05:39:02.818Z,22.3
2023-01-04T05:40:05.399Z,22.3
2023-01-04T05:41:07.931Z,22.3
2023-01-04T05:42:10.194Z,22.3
2023-01-04T05:43:12.748Z,22.3
2023-01-04T05:44:15.314Z,22.3
2023-01-04T05:45:17.543Z,22.3
2023-01-04T05:46:20.259Z,22.3
2023-01-04T05:47:22.945Z,22.3
2023-01-04T05:48:25.499Z,22.3
2023-01-04T05:49:28.039Z,22.3
2023-01-04T05:50:30.628Z,22.3
2023-01-04T05:51:33.163Z,22.3
2023-01-04T05:52:35.436Z,22.3
2023-01-04T05:53:37.974Z,22.3
2023-01-04T05:54:40.469Z,22.3
2023-01-04T05:55:42.745Z,22.3
2023-01-04T05:56:45.307Z,22.3
2023-01-04T05:57:47.825Z,22.3
2023-01-04T05:58:50.066Z,22.3
2023-01-04T05:59:52.559Z,22.3
2023-01-04T06:00:54.819Z,22.3
2023-01-04T06:01:57.770Z,22.3
2023-01-04T06:03:01.220Z,22.3
2023-01-04T06:04:04.254Z,22.3
2023-01-04T06:05:06.995Z,22.3
2023-01-04T06:06:09.250Z,22.3
2023-01-04T06:07:12.073Z,22.3
2023-01-04T06:08:14.645Z,22.3
2023-01-04T06:09:17.188Z,22.3
2023-01-04T06:10:19.425Z,22.3
2023-01-04T06:12:26.681Z,22.3
2023-01-04T06:13:28.947Z,22.3
2023-01-04T06:14:31.452Z,22.3
2023-01-04T06:16:39.093Z,22.2
2023-01-04T06:17:41.547Z,22.3
2023-01-04T06:18:43.805Z,22.3
2023-01-04T06:19:46.336Z,22.2
2023-01-04T06:20:48.609Z,22.2
2023-01-04T06:21:50.568Z,22.2
2023-01-04T06:22:53.417Z,22.2
2023-01-04T06:23:55.993Z,22.2
2023-01-04T06:24:58.217Z,22.2
2023-01-04T06:26:00.725Z,22.2
2023-01-04T06:27:03.256Z,22.2
2023-01-04T06:28:05.576Z,22.2
2023-01-04T06:29:08.083Z,22.2
2023-01-04T06:30:10.610Z,22.2
2023-01-04T06:31:12.537Z,22.2
2023-01-04T06:32:15.289Z,22.2
2023-01-04T06:33:17.791Z,22.2
2023-01-04T06:34:25.356Z,22.2
2023-01-04T06:35:27.512Z,22.2
2023-01-04T06:36:29.751Z,22.2
2023-01-04T06:37:32.436Z,22.2
2023-01-04T06:38:35.039Z,22.2
2023-01-04T06:39:37.597Z,22.2
2023-01-04T06:40:39.872Z,22.2
2023-01-04T06:41:41.826Z,22.2
2023-01-04T06:42:44.322Z,22.2
2023-01-04T06:43:46.612Z,22.2
2023-01-04T06:44:49.130Z,22.2
2023-01-04T06:45:51.476Z,22.2
2023-01-04T06:46:54.328Z,22.2
2023-01-04T06:47:56.572Z,22.2
2023-01-04T06:48:58.821Z,22.2
2023-01-04T06:50:01.056Z,22.2
2023-01-04T06:51:03.689Z,22.2
2023-01-04T06:52:05.925Z,22.2
2023-01-04T06:53:08.165Z,22.2
2023-01-04T06:54:10.718Z,22.2
2023-01-04T06:55:13.056Z,22.2
2023-01-04T06:56:15.289Z,22.2
2023-01-04T06:57:17.821Z,22.2
2023-01-04T06:58:20.072Z,22.1
2023-01-04T06:59:22.600Z,22.1
2023-01-04T07:00:25.157Z,22.1
2023-01-04T07:01:28.250Z,22.1
2023-01-04T07:02:31.432Z,22.1
2023-01-04T07:03:34.108Z,22.1
2023-01-04T07:04:36.595Z,22.1
2023-01-04T07:05:39.258Z,22.1
2023-01-04T07:06:41.198Z,22.1
2023-01-04T07:07:43.715Z,22.1
2023-01-04T07:08:46.246Z,22.1
2023-01-04T07:09:48.842Z,22.1
2023-01-04T07:10:51.423Z,22.1
2023-01-04T07:11:53.932Z,22.1
2023-01-04T07:12:56.469Z,22.1
2023-01-04T07:13:59.000Z,22.1
2023-01-04T07:15:00.787Z,22.1
2023-01-04T07:16:03.554Z,22.1
2023-01-04T07:17:05.969Z,22.1
2023-01-04T07:18:07.948Z,22.1
2023-01-04T07:19:10.563Z,22.1
2023-01-04T07:20:13.176Z,22.1
2023-01-04T07:21:15.492Z,22.1
2023-01-04T07:22:17.767Z,22.1
2023-01-04T07:23:20.291Z,22.1
2023-01-04T07:25:27.834Z,22.1
2023-01-04T07:26:30.176Z,22.1
2023-01-04T07:27:32.712Z,22.1
2023-01-04T07:28:34.969Z,22.1
2023-01-04T07:29:37.553Z,22.1
2023-01-04T07:30:39.949Z,22.1
2023-01-04T07:31:42.316Z,22.1
2023-01-04T07:32:44.534Z,22.1
2023-01-04T07:33:47.039Z,22.1
2023-01-04T07:34:49.543Z,22.1
2023-01-04T07:35:51.778Z,22.1
2023-01-04T07:36:54.353Z,22.1
2023-01-04T07:39:01.875Z,22.1
2023-01-04T07:40:04.469Z,22.1
2023-01-04T07:41:06.755Z,22.1
2023-01-04T07:42:09.452Z,22.1
2023-01-04T07:43:11.670Z,22.1
2023-01-04T07:44:13.924Z,22.1
2023-01-04T07:45:16.462Z,22.1
2023-01-04T07:46:19.263Z,22.1
2023-01-04T07:47:22.012Z,22.1
2023-01-04T07:48:24.840Z,22.1
2023-01-04T07:49:27.383Z,22.1
2023-01-04T07:50:30.042Z,22.1
2023-01-04T07:51:31.996Z,22.1
2023-01-04T07:52:34.591Z,22.1
2023-01-04T07:53:36.915Z,22.1
2023-01-04T07:54:39.157Z,22.1
2023-01-04T07:55:41.716Z,22.1
2023-01-04T07:56:44.076Z,22.1
2023-01-04T07:57:46.685Z,22.1
2023-01-04T07:58:49.229Z,22.1
2023-01-04T07:59:51.178Z,22.1
2023-01-04T08:00:53.724Z,22.1
2023-01-04T08:01:56.760Z,22.1
2023-01-04T08:02:59.992Z,22.1
2023-01-04T08:04:03.041Z,22.1
2023-01-04T08:05:05.725Z,22.1
2023-01-04T08:06:08.323Z,22.1
2023-01-04T08:07:10.877Z,22.1
2023-01-04T08:08:12.816Z,22.1
2023-01-04T08:09:15.056Z,22.1
2023-01-04T08:10:17.634Z,22.1
2023-01-04T08:11:19.598Z,22.1
2023-01-04T08:12:22.229Z,22.1
2023-01-04T08:13:24.798Z,22.1
2023-01-04T08:14:27.331Z,22.1
2023-01-04T08:15:30.046Z,22.1
2023-01-04T08:16:32.944Z,22.1
2023-01-04T08:17:35.971Z,22.1
2023-01-04T08:18:38.503Z,22.1
2023-01-04T08:19:40.805Z,22.1
2023-01-04T08:20:43.067Z,22.1
2023-01-04T08:21:45.588Z,22.1
2023-01-04T08:22:48.110Z,22.1
2023-01-04T08:23:50.636Z,22.1
2023-01-04T08:24:52.891Z,22.1
2023-01-04T08:25:55.171Z,22.1
2023-01-04T08:26:57.413Z,22.1
2023-01-04T08:28:00.068Z,22.1
2023-01-04T08:29:02.672Z,22.1
2023-01-04T08:30:04.933Z,22.1
2023-01-04T08:31:07.611Z,22.1
2023-01-04T08:32:10.331Z,22.1
2023-01-04T08:33:12.981Z,22.1
2023-01-04T08:34:15.246Z,22.1
2023-01-04T08:35:17.776Z,22.1
2023-01-04T08:37:24.994Z,22.1
2023-01-04T08:39:32.482Z,22.1
2023-01-04T08:42:44.998Z,22.1
2023-01-04T08:43:47.664Z,22.1
2023-01-04T08:45:55.585Z,22.1
2023-01-04T08:46:58.555Z,22.1
2023-01-04T08:48:01.495Z,22.1
2023-01-04T08:49:03.762Z,22.1
2023-01-04T08:51:11.282Z,22.1
2023-01-04T08:52:13.804Z,22.1
2023-01-04T08:53:16.392Z,22.1
2023-01-04T08:54:18.678Z,22.1
2023-01-04T08:56:25.686Z,22.1
2023-01-04T08:57:28.254Z,22.1
2023-01-04T08:58:30.835Z,22.1
2023-01-04T08:59:33.153Z,22.1
2023-01-04T09:00:35.507Z,22.1
2023-01-04T09:01:38.508Z,22.1
2023-01-04T09:02:42.346Z,22.1
2023-01-04T09:03:44.981Z,22.1
2023-01-04T09:04:47.870Z,22.1
2023-01-04T09:05:50.016Z,22.1
2023-01-04T09:06:52.561Z,22.1
2023-01-04T09:07:55.123Z,22.1
2023-01-04T09:08:57.377Z,22.1
2023-01-04T09:09:59.949Z,22.1
2023-01-04T09:11:02.704Z,22.1
2023-01-04T09:12:05.309Z,22.1
2023-01-04T09:13:07.386Z,22.1
2023-01-04T09:14:10.563Z,22.1
2023-01-04T09:15:12.603Z,22.1
2023-01-04T09:16:15.337Z,22.1
2023-01-04T09:17:18.007Z,22.1
2023-01-04T09:19:25.554Z,22.1
2023-01-04T09:20:28.111Z,22.1
2023-01-04T09:21:31.019Z,22.1
2023-01-04T09:22:33.616Z,22.1
2023-01-04T09:23:35.897Z,22.1
2023-01-04T09:24:38.159Z,22.1
2023-01-04T09:25:40.994Z,22.1
2023-01-04T09:26:43.513Z,22.1
2023-01-04T09:27:45.225Z,22.1
2023-01-04T09:28:47.493Z,22.1
2023-01-04T09:29:49.499Z,22.1
2023-01-04T09:30:51.517Z,22.1
2023-01-04T09:31:54.564Z,22.1
2023-01-04T09:32:56.972Z,22.1
2023-01-04T09:35:04.215Z,22.1
2023-01-04T09:36:06.814Z,22.1
2023-01-04T09:37:08.759Z,22.1
2023-01-04T09:38:11.300Z,22.1
2023-01-04T09:40:18.275Z,22.1
2023-01-04T09:41:20.862Z,22.1
2023-01-04T09:42:23.126Z,22.1
2023-01-04T09:43:25.682Z,22.1
2023-01-04T09:45:32.950Z,22.1
2023-01-04T09:46:35.575Z,22.1
2023-01-04T09:47:38.395Z,22.1
2023-01-04T09:48:41.109Z,22.1
2023-01-04T09:49:43.380Z,22.1
2023-01-04T09:50:45.086Z,22.1
2023-01-04T09:51:47.415Z,22.1
2023-01-04T09:52:49.706Z,22.1
2023-01-04T09:53:51.722Z,22.1
2023-01-04T09:55:58.947Z,22.1
2023-01-04T09:57:01.534Z,22.1
2023-01-04T09:58:04.074Z,22.1
2023-01-04T09:59:06.648Z,22.1
2023-01-04T10:00:08.893Z,22.1
2023-01-04T10:01:11.715Z,22.1
2023-01-04T10:02:15.639Z,22.1
2023-01-04T10:03:19.463Z,22.1
2023-01-04T10:04:22.514Z,22.1
2023-01-04T10:05:25.031Z,22.1
2023-01-04T10:06:27.273Z,22.1
2023-01-04T10:07:29.892Z,22.1
2023-01-04T10:08:32.146Z,22.1
2023-01-04T10:09:34.719Z,22.1
2023-01-04T10:10:36.696Z,22.1
2023-01-04T10:11:39.224Z,22.1
2023-01-04T10:12:41.762Z,22.1
2023-01-04T10:13:44.290Z,22.1
2023-01-04T10:14:46.584Z,22.1
2023-01-04T10:15:48.747Z,22.1
2023-01-04T10:21:43.636Z,22.1
2023-01-04T10:22:46.562Z,22.1
2023-01-04T10:23:48.796Z,22.1
2023-01-04T10:24:51.023Z,22.1
2023-01-04T10:25:53.585Z,22.1
2023-01-04T10:26:56.132Z,22.1
2023-01-04T10:27:58.774Z,22.1
2023-01-04T10:29:01.016Z,22.1
2023-01-04T10:30:03.258Z,22.1
2023-01-04T10:32:10.952Z,22.1
2023-01-04T10:33:13.369Z,22.1
2023-01-04T10:35:20.921Z,22.1
2023-01-04T10:36:23.322Z,22.1
2023-01-04T10:37:25.631Z,22.1
2023-01-04T10:38:27.964Z,22.1
2023-01-04T10:40:35.462Z,22.1
2023-01-04T10:41:37.695Z,22.1
2023-01-04T10:42:39.667Z,22.1
2023-01-04T10:44:47.208Z,22.1
2023-01-04T10:45:49.745Z,22.1
2023-01-04T10:46:52.403Z,22.1
2023-01-04T10:47:54.875Z,22.1
2023-01-04T10:48:57.402Z,22.1
2023-01-04T10:49:59.929Z,22.1
2023-01-04T10:52:07.495Z,22.1
2023-01-04T10:53:10.092Z,22.1
2023-01-04T10:54:12.442Z,22.1
2023-01-04T10:55:14.731Z,22
2023-01-04T10:57:22.220Z,22.1
2023-01-04T10:58:24.775Z,22.1
2023-01-04T10:59:27.311Z,22.1
2023-01-04T11:00:29.592Z,22.1
2023-01-04T11:01:33.044Z,22.1
2023-01-04T11:02:36.393Z,22.1
2023-01-04T11:03:39.271Z,22.1
2023-01-04T11:04:41.833Z,22.1
2023-01-04T11:05:43.818Z,22.1
2023-01-04T11:06:45.793Z,22.1
2023-01-04T11:07:47.797Z,22.1
2023-01-04T11:08:50.369Z,22.1
2023-01-04T11:09:52.680Z,22.1
2023-01-04T11:10:55.230Z,22.1
2023-01-04T11:11:57.504Z,22.1
2023-01-04T11:13:00.043Z,22.1
2023-01-04T11:14:02.321Z,22.1
2023-01-04T11:15:04.869Z,22.1
2023-01-04T11:16:07.613Z,22.1
2023-01-04T11:17:10.333Z,22.1
2023-01-04T11:18:12.592Z,22.1
2023-01-04T11:19:15.102Z,22.1
2023-01-04T11:20:17.659Z,22.1
2023-01-04T11:21:19.639Z,22.1
2023-01-04T11:22:21.921Z,22.1
2023-01-04T11:23:24.128Z,22.1
2023-01-04T11:26:36.782Z,22.1
2023-01-04T11:27:39.586Z,22.1
2023-01-04T11:28:42.154Z,22.1
2023-01-04T11:29:44.412Z,22.1
2023-01-04T11:30:46.390Z,22.1
2023-01-04T11:31:49.125Z,22.1
2023-01-04T11:32:51.449Z,22.1
2023-01-04T11:33:53.990Z,22.1
2023-01-04T11:34:56.622Z,22.1
2023-01-04T11:35:58.901Z,22.1
2023-01-04T11:37:01.608Z,22.1
2023-01-04T11:38:03.854Z,22
2023-01-04T11:39:06.414Z,22.1
2023-01-04T11:40:08.654Z,22.1
2023-01-04T11:41:11.233Z,22
2023-01-04T11:42:13.516Z,22
2023-01-04T11:43:16.071Z,22
2023-01-04T11:44:18.599Z,22
2023-01-04T11:45:20.348Z,22
2023-01-04T11:46:22.964Z,22
2023-01-04T11:48:30.081Z,22
2023-01-04T11:49:32.341Z,22
2023-01-04T11:50:34.846Z,22
2023-01-04T11:51:36.810Z,22
2023-01-04T11:52:39.347Z,22
2023-01-04T11:53:41.682Z,22
2023-01-04T11:54:43.988Z,22
2023-01-04T11:55:46.548Z,22
2023-01-04T11:56:48.815Z,22
2023-01-04T11:57:51.388Z,22
2023-01-04T11:58:53.975Z,22
2023-01-04T11:59:56.224Z,22
2023-01-04T12:00:58.224Z,22
2023-01-04T12:02:01.258Z,22
2023-01-04T12:03:04.624Z,22
2023-01-04T12:04:07.485Z,22
2023-01-04T12:05:09.715Z,22
2023-01-04T12:06:12.217Z,22
2023-01-04T12:07:14.712Z,22
2023-01-04T12:08:17.227Z,22
2023-01-04T12:09:19.938Z,22
2023-01-04T12:10:22.215Z,22
2023-01-04T12:11:24.512Z,22
2023-01-04T12:12:27.053Z,22
2023-01-04T12:13:29.636Z,22
2023-01-04T12:14:31.935Z,22
2023-01-04T12:15:34.497Z,22
2023-01-04T12:16:36.468Z,22
2023-01-04T12:18:43.725Z,22
2023-01-04T12:19:46.255Z,22
2023-01-04T12:20:48.239Z,22
2023-01-04T12:21:50.777Z,22
2023-01-04T12:22:53.302Z,22
2023-01-04T12:23:55.836Z,22
2023-01-04T12:26:03.373Z,22.1
2023-01-04T12:27:05.364Z,22
2023-01-04T12:28:07.619Z,22
2023-01-04T12:29:09.907Z,22
2023-01-04T12:30:12.551Z,22
2023-01-04T12:32:19.885Z,22
2023-01-04T12:33:22.172Z,22
2023-01-04T12:34:24.683Z,22.1
2023-01-04T12:35:27.225Z,22
2023-01-04T12:36:29.460Z,22.1
2023-01-04T12:37:31.982Z,22.1
2023-01-04T12:38:34.504Z,22.1
2023-01-04T12:39:36.753Z,22
2023-01-04T12:40:39.264Z,22
2023-01-04T12:41:41.243Z,22
2023-01-04T12:42:43.501Z,22
2023-01-04T12:43:48.221Z,22
2023-01-04T12:44:50.773Z,22
2023-01-04T12:45:53.774Z,22
2023-01-04T12:46:56.355Z,22
2023-01-04T12:47:58.021Z,22.1
2023-01-04T12:49:00.574Z,22
2023-01-04T12:50:02.542Z,22
2023-01-04T12:53:33.968Z,22.1
2023-01-04T12:54:36.480Z,22
2023-01-04T12:56:43.477Z,22
2023-01-04T12:57:46.000Z,22.1
2023-01-04T12:59:53.547Z,22
2023-01-04T13:00:56.409Z,22
2023-01-04T13:01:59.155Z,22
2023-01-04T13:03:02.775Z,22
2023-01-04T13:04:07.152Z,22.1
2023-01-04T13:06:14.784Z,22.1
2023-01-04T13:07:17.349Z,22.1
2023-01-04T13:08:19.623Z,22.1
2023-01-04T13:10:27.136Z,22.1
2023-01-04T13:11:29.707Z,22.1
2023-01-04T13:12:32.204Z,22.1
2023-01-04T13:13:34.464Z,22.1
2023-01-04T13:14:36.717Z,22.1
2023-01-04T13:15:39.336Z,22.1
2023-01-04T13:16:42.163Z,22.1
2023-01-04T13:17:44.591Z,22.1
2023-01-04T13:18:46.580Z,22.1
2023-01-04T13:19:49.166Z,22.1
2023-01-04T13:20:51.682Z,22.1
2023-01-04T13:21:53.640Z,22.1
2023-01-04T13:22:55.869Z,22.1
2023-01-04T13:23:58.386Z,22.1
2023-01-04T13:25:01.173Z,22.1
2023-01-04T13:26:03.114Z,22.1
2023-01-04T13:27:05.647Z,22.1
2023-01-04T13:29:13.130Z,22.1
2023-01-04T13:30:15.664Z,22.1
2023-01-04T13:31:18.504Z,22.1
2023-01-04T13:32:21.327Z,22.1
2023-01-04T13:34:28.866Z,22.1
2023-01-04T13:35:31.154Z,22.1
2023-01-04T13:36:33.745Z,22.1
2023-01-04T13:37:36.292Z,22.1
2023-01-04T13:38:38.522Z,22.1
2023-01-04T13:39:41.044Z,22.1
2023-01-04T13:41:48.587Z,22.1
2023-01-04T13:42:50.818Z,22.1
2023-01-04T13:43:53.107Z,22.1
2023-01-04T13:47:05.420Z,22.1
2023-01-04T13:48:07.497Z,22.1
2023-01-04T13:49:09.858Z,22.1
2023-01-04T13:50:12.387Z,22.1
2023-01-04T13:51:14.960Z,22.1
2023-01-04T13:53:22.489Z,22.1
2023-01-04T13:54:26.823Z,22.1
2023-01-04T13:55:31.138Z,22.1
2023-01-04T13:56:33.777Z,22.1
2023-01-04T13:57:36.330Z,22.1
2023-01-04T13:58:38.870Z,22.1
2023-01-04T13:59:41.498Z,22.1
2023-01-04T14:00:44.218Z,22.1
2023-01-04T14:01:47.182Z,22.1
2023-01-04T14:02:51.079Z,22.1
2023-01-04T14:03:54.484Z,22.1
2023-01-04T14:04:57.000Z,22.1
2023-01-04T14:07:04.508Z,22.1
2023-01-04T14:08:07.028Z,22.1
2023-01-04T14:09:09.249Z,22.1
2023-01-04T14:10:11.208Z,22.1
2023-01-04T14:11:13.430Z,22.1
2023-01-04T14:12:15.974Z,22.1
2023-01-04T14:13:18.503Z,22.1
2023-01-04T14:14:20.725Z,22.1
2023-01-04T14:15:23.008Z,22.1
2023-01-04T14:16:25.815Z,22.1
2023-01-04T14:17:28.439Z,22
2023-01-04T14:18:30.787Z,22.1
2023-01-04T14:19:33.309Z,22
2023-01-04T14:20:35.462Z,22.1
2023-01-04T14:21:37.988Z,22.1
2023-01-04T14:22:40.449Z,22
2023-01-04T14:23:42.891Z,22.1
2023-01-04T14:25:50.265Z,22
2023-01-04T14:26:52.790Z,22
2023-01-04T14:27:54.757Z,22
2023-01-04T14:28:57.310Z,22.1
2023-01-04T14:29:59.840Z,22
2023-01-04T14:31:02.256Z,22
2023-01-04T14:32:04.359Z,22
2023-01-04T14:33:06.601Z,22
2023-01-04T14:34:08.957Z,22
2023-01-04T14:35:11.258Z,22
2023-01-04T14:36:14.209Z,22
2023-01-04T14:37:16.758Z,22
2023-01-04T14:38:19.307Z,22
2023-01-04T14:39:21.972Z,22.1
2023-01-04T14:40:24.673Z,22
2023-01-04T14:41:26.921Z,22.1
2023-01-04T14:42:28.616Z,22.1
2023-01-04T14:43:31.149Z,22.1
2023-01-04T14:44:33.215Z,22.1
2023-01-04T14:45:35.738Z,22
2023-01-04T14:46:38.556Z,22
2023-01-04T14:47:41.332Z,22
2023-01-04T14:48:43.851Z,22
2023-01-04T14:49:46.436Z,22
2023-01-04T14:50:49.013Z,22
2023-01-04T14:51:51.519Z,22.1
2023-01-04T14:52:53.227Z,22